Foreston, MN (56330)

1:55 AM CDT on August 28, 2016 (GMT -0500)
Milaca Township, Foreston, MN | | Change Station
Active Advisory: Dense Fog Advisory

Elev 1108 ft 45.75 °N, 93.74 °W | Updated 1 second ago

Mist
Mist
61.2 °F
Feels Like 61.2 °F
N
3.4
Wind Variable Wind from SSE
Gusts 3.6 mph

Today
High -- | Low -- °F
--% Chance of Precip.
Yesterday
High -- | Low -- °F
Precip. -- in
Pressure 30.10 in
Visibility 5.0 miles
Clouds
Dew Point 60 °F
Humidity 94%
Rainfall 0.00 in
Snow Depth Not available.
6:31 AM 7:59 PM
Waning Crescent, 18% visible
METAR KPNM 280634Z AUTO 00000KT 5SM BR 17/16 A3010 RMK AO2
Pressure 30.10 in
Visibility 5.0 miles
Clouds
Dew Point 60 °F
Humidity 94%
Rainfall 0.00 in
Snow Depth Not available.
6:31 AM 7:59 PM
Waning Crescent, 18% visible
METAR KPNM 280634Z AUTO 00000KT 5SM BR 17/16 A3010 RMK AO2

10-Day Weather Forecast

Almanac

Astronomy

Aug. 28, 2016 Rise Set
Actual Time
Civil Twilight
Nautical Twilight
Astronomical Twilight
Moon
Length of Visible Light
Length of Day
Tomorrow will be .
, % of the Moon is Illuminated

Today's Extremes

State Highs State Lows

Community

WunderPhotos

Upload Photos

1,935,533 photos uploaded!

WunderBlog® & News

Nearby

Air Quality

  Air Quality AQ Index Pollutant
Not available.

Snow Depth

Station Depth Elevation

Earthquake Activity

City Distance Mag. Time & Date
Minimum magnitude displayed is 2.5.

Coastal Water Temperatures

Place Temperature

Stations

Nearby Weather Stations

Station Location Temp. Windchill Dew Point Humidity Wind Precip. Elev Updated Type
                   

Watches & Warnings

Dense Fog Advisory
Issued: 12:23 AM CDT Aug. 28, 2016 – National Weather Service

... Dense fog advisory in effect until 8 am CDT this morning...

The National Weather Service in Twin Cities/Chanhassen has issued
a dense fog advisory... which is in effect until 8 am CDT this
morning.

* Visibility... less than a quarter mile.

* Impacts... it may be difficult to see the Road if you are out
driving tonight or early tomorrow morning.

Precautionary/preparedness actions...

A dense fog advisory means visibilities will frequently be
reduced to less than one quarter mile. If driving... slow down...
use your headlights... and leave plenty of distance ahead of you.